Time;durP1;ratioP1;P1;durP2;ratioP2;P2;SDS_P1;SDS_P2;PMS_P1;PMS_P2;Temp;Humidity;BMP_temperature;BMP_pressure;BME280_temperature;BME280_humidity;BME280_pressure;Samples;Min_cycle;Max_cycle;Signal;HPM_P1;HPM_P2
2023/11/11 00:01:58;;;;;;;1.38;1.20;;;8.20;99.90;;;;;;5100537;28;20033;-67
2023/11/11 00:04:25;;;;;;;1.75;1.27;;;8.20;99.90;;;;;;5098877;28;20036;-66
2023/11/11 00:06:51;;;;;;;1.10;0.98;;;8.20;99.90;;;;;;5100042;28;20057;-67
2023/11/11 00:09:18;;;;;;;2.80;1.42;;;8.10;99.90;;;;;;5099879;28;20028;-67
2023/11/11 00:11:44;;;;;;;2.28;0.95;;;8.10;99.90;;;;;;5096009;28;20042;-67
2023/11/11 00:14:14;;;;;;;2.13;0.98;;;8.10;99.90;;;;;;5098607;28;20044;-67
2023/11/11 00:16:40;;;;;;;3.58;1.05;;;8.10;99.90;;;;;;5096705;28;20122;-67
2023/11/11 00:19:13;;;;;;;3.13;1.40;;;8.00;99.90;;;;;;5097106;28;20107;-67
2023/11/11 00:21:42;;;;;;;3.90;1.20;;;8.00;99.90;;;;;;5095711;28;20066;-67
2023/11/11 00:24:09;;;;;;;2.15;0.90;;;7.90;99.90;;;;;;5097743;28;20536;-67
2023/11/11 00:26:36;;;;;;;2.35;1.00;;;7.90;99.90;;;;;;5097329;28;20802;-67
2023/11/11 00:29:02;;;;;;;2.75;1.00;;;7.90;99.90;;;;;;5098533;28;20023;-67
2023/11/11 00:31:30;;;;;;;1.42;0.88;;;7.80;99.90;;;;;;5094789;28;20032;-66
2023/11/11 00:33:58;;;;;;;2.05;1.00;;;7.80;99.90;;;;;;5087960;28;20049;-67
2023/11/11 00:36:25;;;;;;;4.43;1.10;;;7.70;99.90;;;;;;5095891;28;20127;-67
2023/11/11 00:38:51;;;;;;;3.30;1.20;;;7.70;99.90;;;;;;5098679;28;20943;-67
2023/11/11 00:41:17;;;;;;;4.57;1.52;;;7.70;99.90;;;;;;5095854;28;20032;-66
2023/11/11 00:43:43;;;;;;;3.45;1.10;;;7.70;99.90;;;;;;5097518;28;20024;-67
2023/11/11 00:46:09;;;;;;;3.17;1.30;;;7.60;99.90;;;;;;5091686;28;20031;-67
2023/11/11 00:48:35;;;;;;;4.85;1.52;;;7.60;99.90;;;;;;5098903;28;20031;-67
2023/11/11 00:51:01;;;;;;;2.50;1.10;;;7.60;99.90;;;;;;5094142;28;20036;-67
2023/11/11 00:53:27;;;;;;;1.83;1.23;;;7.60;99.90;;;;;;5101171;28;20039;-66
2023/11/11 00:55:53;;;;;;;1.50;1.20;;;7.60;99.90;;;;;;5092708;28;20063;-67
2023/11/11 00:58:19;;;;;;;2.20;1.30;;;7.60;99.90;;;;;;5101819;28;20023;-67
2023/11/11 01:00:45;;;;;;;1.48;1.02;;;7.50;99.90;;;;;;5094517;28;20024;-67
2023/11/11 01:03:12;;;;;;;1.55;1.35;;;7.50;99.90;;;;;;5101025;28;20028;-67
2023/11/11 01:05:40;;;;;;;2.10;1.25;;;7.50;99.90;;;;;;5096006;28;20056;-66
2023/11/11 01:08:06;;;;;;;1.95;1.38;;;7.40;99.90;;;;;;5099476;28;20032;-66
2023/11/11 01:10:37;;;;;;;2.90;1.90;;;7.40;99.90;;;;;;5092648;28;20184;-67
2023/11/11 01:13:03;;;;;;;2.80;1.48;;;7.40;99.90;;;;;;5096464;28;20057;-66
2023/11/11 01:15:29;;;;;;;3.17;1.50;;;7.40;99.90;;;;;;5097033;28;20115;-67
2023/11/11 01:17:55;;;;;;;2.70;1.35;;;7.40;99.90;;;;;;5098070;28;20525;-67
2023/11/11 01:20:21;;;;;;;3.35;1.20;;;7.30;99.90;;;;;;5091716;28;20028;-67
2023/11/11 01:22:49;;;;;;;1.80;1.10;;;7.30;99.90;;;;;;5101011;28;20112;-67
2023/11/11 01:25:16;;;;;;;1.98;1.23;;;7.30;99.90;;;;;;5106408;28;20061;-66
2023/11/11 01:27:42;;;;;;;3.05;1.30;;;7.30;99.90;;;;;;5097974;28;20123;-67
2023/11/11 01:30:08;;;;;;;3.10;1.60;;;7.30;99.90;;;;;;5102093;28;20130;-67
2023/11/11 01:32:34;;;;;;;2.00;1.17;;;7.30;99.90;;;;;;5098683;28;20027;-67
2023/11/11 01:35:00;;;;;;;1.38;1.00;;;7.30;99.90;;;;;;5099437;28;20042;-67
2023/11/11 01:37:26;;;;;;;2.63;1.42;;;7.40;99.90;;;;;;5098683;28;20471;-66
2023/11/11 01:39:52;;;;;;;5.43;1.38;;;7.40;99.90;;;;;;5101144;28;20024;-67
2023/11/11 01:42:21;;;;;;;2.33;1.17;;;7.50;99.90;;;;;;5106257;28;20016;-67
2023/11/11 01:44:47;;;;;;;2.30;1.38;;;7.50;99.90;;;;;;5101474;28;20088;-66
2023/11/11 01:47:13;;;;;;;2.53;1.15;;;7.60;99.90;;;;;;5097707;28;20483;-67
2023/11/11 01:49:39;;;;;;;2.72;1.42;;;7.50;99.90;;;;;;5102554;28;20024;-67
2023/11/11 01:52:07;;;;;;;1.85;1.30;;;7.50;99.90;;;;;;5098950;28;20070;-67
2023/11/11 01:54:34;;;;;;;4.32;1.55;;;7.50;99.90;;;;;;5101209;28;20035;-67
2023/11/11 01:57:03;;;;;;;3.08;1.30;;;7.50;99.90;;;;;;5095657;28;20558;-67
2023/11/11 01:59:31;;;;;;;2.33;1.20;;;7.40;99.90;;;;;;5101603;28;20483;-66
2023/11/11 02:02:00;;;;;;;1.65;1.10;;;7.40;99.90;;;;;;5096210;28;20084;-67
2023/11/11 02:04:26;;;;;;;2.70;1.70;;;7.30;99.90;;;;;;5103841;28;20120;-67
2023/11/11 02:06:52;;;;;;;4.03;0.98;;;7.30;99.90;;;;;;5096978;28;20464;-67
2023/11/11 02:09:21;;;;;;;2.83;1.38;;;7.30;99.90;;;;;;5104178;28;20104;-67
2023/11/11 02:11:55;;;;;;;2.17;1.15;;;7.20;99.90;;;;;;5095680;28;20036;-67
2023/11/11 02:14:22;;;;;;;3.15;1.70;;;7.20;99.90;;;;;;5104137;28;20691;-67
2023/11/11 02:16:47;;;;;;;3.50;1.55;;;7.20;99.90;;;;;;5098619;28;20035;-67
2023/11/11 02:19:13;;;;;;;2.80;1.40;;;7.20;99.90;;;;;;5103682;28;20024;-67
2023/11/11 02:21:39;;;;;;;2.10;1.58;;;7.30;99.90;;;;;;5098058;27;20089;-66
2023/11/11 02:24:07;;;;;;;2.75;1.92;;;7.30;99.90;;;;;;5101524;28;20803;-66
2023/11/11 02:26:33;;;;;;;2.10;1.38;;;7.30;99.90;;;;;;5098775;28;20106;-67
2023/11/11 02:28:59;;;;;;;3.17;1.60;;;7.30;99.90;;;;;;5102833;28;20066;-67
2023/11/11 02:31:25;;;;;;;1.25;1.00;;;7.30;99.90;;;;;;5100434;28;20023;-66
2023/11/11 02:33:51;;;;;;;2.05;1.40;;;7.20;99.90;;;;;;5100852;28;20031;-66
2023/11/11 02:36:18;;;;;;;3.47;1.40;;;7.20;99.90;;;;;;5100111;27;20631;-66
2023/11/11 02:38:44;;;;;;;4.13;1.10;;;7.20;99.90;;;;;;5093041;28;20028;-67
2023/11/11 02:41:10;;;;;;;3.05;1.45;;;7.20;99.90;;;;;;5100737;28;20108;-67
2023/11/11 02:43:36;;;;;;;3.25;1.48;;;7.10;99.90;;;;;;5101360;28;20024;-67
2023/11/11 02:46:02;;;;;;;3.58;1.70;;;7.10;99.90;;;;;;5098135;28;20061;-66
2023/11/11 02:48:28;;;;;;;2.47;1.30;;;7.10;99.90;;;;;;5100033;28;20059;-66
2023/11/11 02:50:54;;;;;;;4.07;1.95;;;7.00;99.90;;;;;;5097051;28;20551;-66
2023/11/11 02:53:20;;;;;;;3.13;1.25;;;7.00;99.90;;;;;;5101237;28;20035;-67
2023/11/11 02:55:46;;;;;;;5.57;1.48;;;6.90;99.90;;;;;;5100384;28;20529;-66
2023/11/11 02:58:12;;;;;;;4.63;1.52;;;6.90;99.90;;;;;;5097681;28;20135;-66
2023/11/11 03:00:40;;;;;;;2.65;1.45;;;6.90;99.90;;;;;;5100535;28;20126;-67
2023/11/11 03:03:09;;;;;;;1.85;1.10;;;6.80;99.90;;;;;;5100083;28;20028;-66
2023/11/11 03:05:36;;;;;;;5.05;2.17;;;6.80;99.90;;;;;;5101075;28;20126;-67
2023/11/11 03:08:02;;;;;;;1.42;1.20;;;6.80;99.90;;;;;;5099335;28;20082;-66
2023/11/11 03:10:28;;;;;;;2.00;1.50;;;6.80;99.90;;;;;;5101289;28;20020;-66
2023/11/11 03:12:54;;;;;;;3.72;1.10;;;6.70;99.90;;;;;;5097670;28;20020;-66
2023/11/11 03:15:20;;;;;;;1.52;1.10;;;6.70;99.90;;;;;;5099670;28;20084;-66
2023/11/11 03:17:46;;;;;;;2.20;1.40;;;6.60;99.90;;;;;;5098469;28;20735;-67
2023/11/11 03:20:12;;;;;;;4.22;1.33;;;6.60;99.90;;;;;;5099296;28;20369;-66
2023/11/11 03:22:38;;;;;;;3.80;1.50;;;6.60;99.90;;;;;;5098153;28;20249;-66
2023/11/11 03:25:05;;;;;;;5.97;1.45;;;6.50;99.90;;;;;;5098398;28;20024;-67
2023/11/11 03:27:31;;;;;;;4.60;1.50;;;6.50;99.90;;;;;;5096872;28;20036;-67
2023/11/11 03:30:00;;;;;;;1.70;1.10;;;6.50;99.90;;;;;;5100027;28;20031;-67
2023/11/11 03:32:26;;;;;;;3.10;1.40;;;6.50;99.90;;;;;;5098378;28;20105;-67
2023/11/11 03:34:52;;;;;;;2.28;1.40;;;6.50;99.90;;;;;;5095578;28;20043;-67
2023/11/11 03:37:18;;;;;;;3.65;1.55;;;6.50;99.90;;;;;;5096884;28;20019;-66
2023/11/11 03:39:44;;;;;;;1.33;1.08;;;6.50;99.90;;;;;;5101800;28;20035;-67
2023/11/11 03:42:10;;;;;;;2.53;1.30;;;6.60;99.90;;;;;;5097374;28;20130;-67
2023/11/11 03:44:36;;;;;;;2.92;1.40;;;6.60;99.90;;;;;;5100465;28;20475;-67
2023/11/11 03:47:02;;;;;;;4.45;1.30;;;6.60;99.90;;;;;;5094227;28;20040;-67
2023/11/11 03:49:28;;;;;;;6.40;1.60;;;6.70;99.90;;;;;;5102877;28;20747;-66
2023/11/11 03:51:54;;;;;;;4.57;1.85;;;6.90;99.90;;;;;;5095750;28;20112;-67
2023/11/11 03:54:21;;;;;;;1.52;1.23;;;7.00;99.90;;;;;;5102536;28;20047;-67
2023/11/11 03:56:49;;;;;;;3.75;1.15;;;7.00;99.90;;;;;;5096756;28;20910;-66
2023/11/11 03:59:15;;;;;;;3.38;1.30;;;7.00;99.90;;;;;;5099703;28;20035;-67
2023/11/11 04:01:41;;;;;;;3.83;1.55;;;7.10;99.90;;;;;;5096032;28;20027;-66
2023/11/11 04:04:08;;;;;;;2.42;1.10;;;7.10;99.90;;;;;;5097820;28;20024;-66
2023/11/11 04:06:35;;;;;;;1.85;1.17;;;7.10;99.90;;;;;;5098309;28;20702;-67
2023/11/11 04:09:02;;;;;;;1.23;0.95;;;7.10;99.90;;;;;;5097450;28;20482;-68
2023/11/11 04:11:28;;;;;;;2.20;1.10;;;7.10;99.90;;;;;;5099673;28;20024;-66
2023/11/11 04:13:56;;;;;;;5.43;1.45;;;7.20;99.90;;;;;;5093163;28;20032;-67
2023/11/11 04:16:24;;;;;;;2.95;1.20;;;7.10;99.90;;;;;;5103463;28;20032;-66
2023/11/11 04:18:50;;;;;;;3.38;1.40;;;7.10;99.90;;;;;;5094868;28;20060;-67
2023/11/11 04:21:16;;;;;;;3.38;1.38;;;7.00;99.90;;;;;;5098267;28;20051;-66
2023/11/11 04:23:42;;;;;;;1.63;1.30;;;6.90;99.90;;;;;;5097973;28;20064;-66
2023/11/11 04:26:07;;;;;;;3.25;1.10;;;6.80;99.90;;;;;;5098919;28;20063;-66
2023/11/11 04:28:34;;;;;;;3.00;1.48;;;6.80;99.90;;;;;;5096796;28;20406;-66
2023/11/11 04:31:00;;;;;;;4.82;1.27;;;6.70;99.90;;;;;;5090985;27;20564;-66
2023/11/11 04:33:28;;;;;;;2.40;1.27;;;6.70;99.90;;;;;;5095614;28;20448;-66
2023/11/11 04:35:54;;;;;;;1.25;1.10;;;6.70;99.90;;;;;;5096828;28;20491;-66
2023/11/11 04:38:23;;;;;;;1.42;1.05;;;6.70;99.90;;;;;;5097537;28;20791;-66
2023/11/11 04:40:49;;;;;;;1.35;1.13;;;6.70;99.90;;;;;;5099303;28;20032;-66
2023/11/11 04:43:16;;;;;;;2.30;1.10;;;6.70;99.90;;;;;;5096883;28;20115;-66
2023/11/11 04:45:42;;;;;;;1.40;1.10;;;6.70;99.90;;;;;;5096783;28;20028;-66
2023/11/11 04:48:09;;;;;;;1.88;0.82;;;6.80;99.90;;;;;;5096033;28;20722;-66
2023/11/11 04:50:35;;;;;;;5.85;1.52;;;6.80;99.90;;;;;;5101572;28;20634;-66
2023/11/11 04:53:01;;;;;;;2.13;1.48;;;6.90;99.90;;;;;;5095078;28;20109;-66
2023/11/11 04:55:27;;;;;;;3.55;1.33;;;6.90;99.90;;;;;;5101791;28;20034;-67
2023/11/11 04:57:53;;;;;;;4.13;1.40;;;6.90;99.90;;;;;;5097703;28;20426;-66
2023/11/11 05:00:19;;;;;;;3.78;1.40;;;7.00;99.90;;;;;;5106066;28;20575;-66
2023/11/11 05:02:45;;;;;;;2.47;1.27;;;7.00;99.90;;;;;;5099377;28;20051;-67
2023/11/11 05:05:11;;;;;;;5.65;1.23;;;7.10;99.90;;;;;;5105026;28;20151;-67
2023/11/11 05:07:40;;;;;;;1.73;1.30;;;7.10;99.90;;;;;;5101117;28;20046;-66
2023/11/11 05:10:10;;;;;;;1.25;1.15;;;7.10;99.90;;;;;;5104497;28;20450;-66
2023/11/11 05:12:37;;;;;;;4.13;1.50;;;7.20;99.90;;;;;;5098554;28;20057;-67
2023/11/11 05:15:15;;;;;;;1.35;1.10;;;7.20;99.90;;;;;;5096434;28;20436;-67
2023/11/11 05:17:43;;;;;;;3.80;1.30;;;7.20;99.90;;;;;;5100189;28;20120;-67
2023/11/11 05:20:10;;;;;;;1.98;1.30;;;7.20;99.90;;;;;;5104478;28;20396;-66
2023/11/11 05:22:37;;;;;;;1.52;1.05;;;7.20;99.90;;;;;;5101041;28;20038;-67
2023/11/11 05:25:05;;;;;;;2.95;1.30;;;7.20;99.90;;;;;;5103559;28;20032;-66
2023/11/11 05:27:31;;;;;;;2.90;1.23;;;7.10;99.90;;;;;;5101554;28;20036;-67
2023/11/11 05:29:57;;;;;;;2.15;1.10;;;7.00;99.90;;;;;;5102584;28;20032;-66
2023/11/11 05:32:23;;;;;;;2.00;1.05;;;7.00;99.90;;;;;;5102243;28;20039;-66
2023/11/11 05:34:49;;;;;;;2.25;1.10;;;6.90;99.90;;;;;;5101957;28;20138;-66
2023/11/11 05:37:15;;;;;;;2.28;1.20;;;6.80;99.90;;;;;;5101943;28;20126;-67
2023/11/11 05:39:44;;;;;;;2.70;1.30;;;6.80;99.90;;;;;;5103207;28;20111;-66
2023/11/11 05:42:11;;;;;;;3.03;1.20;;;6.70;99.90;;;;;;5100928;28;20097;-66
2023/11/11 05:44:41;;;;;;;2.08;1.35;;;6.70;99.90;;;;;;5102664;28;20441;-66
2023/11/11 05:47:10;;;;;;;1.58;1.40;;;6.80;99.90;;;;;;5099534;27;20038;-67
2023/11/11 05:49:36;;;;;;;1.90;1.25;;;6.80;99.90;;;;;;5102819;28;20039;-67
2023/11/11 05:52:04;;;;;;;2.55;1.20;;;6.80;99.90;;;;;;5100292;27;20032;-67
2023/11/11 05:54:31;;;;;;;2.55;1.00;;;6.80;99.90;;;;;;5099279;28;20508;-67
2023/11/11 05:56:58;;;;;;;2.85;1.20;;;6.70;99.90;;;;;;5100583;28;20119;-66
2023/11/11 05:59:25;;;;;;;3.42;1.25;;;6.60;99.90;;;;;;5099976;27;20442;-66
2023/11/11 06:01:51;;;;;;;3.25;1.33;;;6.60;99.90;;;;;;5101429;28;20036;-66
2023/11/11 06:04:18;;;;;;;1.73;1.30;;;6.50;99.90;;;;;;5099024;28;20867;-66
2023/11/11 06:06:44;;;;;;;2.95;1.50;;;6.50;99.90;;;;;;5102287;27;20039;-66
2023/11/11 06:09:11;;;;;;;2.65;1.63;;;6.40;99.90;;;;;;5096350;28;20032;-66
2023/11/11 06:11:45;;;;;;;2.88;1.20;;;6.40;99.90;;;;;;5099888;28;20024;-66
2023/11/11 06:14:16;;;;;;;3.15;1.20;;;6.30;99.90;;;;;;5098035;28;20031;-66
2023/11/11 06:16:42;;;;;;;12.25;1.85;;;6.30;99.90;;;;;;5102749;28;20084;-67
2023/11/11 06:19:08;;;;;;;3.08;1.70;;;6.30;99.90;;;;;;5101664;28;20012;-66
2023/11/11 06:21:34;;;;;;;3.53;1.50;;;6.30;99.90;;;;;;5102494;28;20077;-66
2023/11/11 06:24:00;;;;;;;2.38;1.40;;;6.30;99.90;;;;;;5097929;27;20043;-66
2023/11/11 06:26:27;;;;;;;2.75;1.30;;;6.40;99.90;;;;;;5098913;27;20051;-66
2023/11/11 06:28:55;;;;;;;1.65;1.35;;;6.40;99.90;;;;;;5096095;28;20036;-66
2023/11/11 06:31:23;;;;;;;4.10;1.27;;;6.50;99.90;;;;;;5100093;28;20553;-67
2023/11/11 06:33:50;;;;;;;1.83;1.55;;;6.60;99.90;;;;;;5097071;28;20093;-66
2023/11/11 06:36:16;;;;;;;4.38;1.27;;;6.60;99.90;;;;;;5102786;28;20085;-66
2023/11/11 06:38:43;;;;;;;2.83;1.33;;;6.70;99.90;;;;;;5097471;28;20111;-66
2023/11/11 06:41:09;;;;;;;3.97;1.20;;;6.80;99.90;;;;;;5101954;28;20024;-67
2023/11/11 06:43:35;;;;;;;1.95;1.02;;;6.90;99.90;;;;;;5097539;28;20035;-66
2023/11/11 06:46:02;;;;;;;2.00;1.52;;;7.00;99.90;;;;;;5101893;28;20031;-66
2023/11/11 06:48:28;;;;;;;1.95;1.35;;;7.10;99.90;;;;;;5099628;28;20027;-66
2023/11/11 06:50:54;;;;;;;3.42;1.77;;;7.20;99.90;;;;;;5100117;28;20109;-66
2023/11/11 06:53:20;;;;;;;2.25;1.30;;;7.20;99.90;;;;;;5099306;28;20031;-66
2023/11/11 06:55:48;;;;;;;3.17;1.35;;;7.30;99.90;;;;;;5100562;28;20138;-66
2023/11/11 06:58:14;;;;;;;2.25;1.45;;;7.30;99.90;;;;;;5097459;28;20070;-66
2023/11/11 07:00:40;;;;;;;4.68;1.40;;;7.40;99.90;;;;;;5103699;28;20046;-66
2023/11/11 07:03:06;;;;;;;2.78;1.05;;;7.40;99.90;;;;;;5096059;28;20757;-66
2023/11/11 07:05:32;;;;;;;2.97;1.40;;;7.40;99.90;;;;;;5103833;28;20038;-67
2023/11/11 07:07:58;;;;;;;3.53;1.70;;;7.50;99.90;;;;;;5095450;28;20517;-66
2023/11/11 07:10:24;;;;;;;2.60;1.20;;;7.60;99.90;;;;;;5103603;28;20085;-66
2023/11/11 07:12:51;;;;;;;3.13;1.10;;;7.70;99.90;;;;;;5094770;28;20035;-67
2023/11/11 07:15:17;;;;;;;5.03;1.40;;;7.70;99.90;;;;;;5102130;28;20036;-67
2023/11/11 07:17:44;;;;;;;3.40;1.63;;;7.70;99.90;;;;;;5098738;28;20035;-66
2023/11/11 07:20:12;;;;;;;5.45;1.48;;;7.80;99.90;;;;;;5100205;28;20027;-67
2023/11/11 07:22:38;;;;;;;4.07;1.63;;;7.90;99.90;;;;;;5098825;28;20031;-67
2023/11/11 07:25:05;;;;;;;4.22;2.00;;;7.90;99.90;;;;;;5099691;28;20035;-67
2023/11/11 07:27:32;;;;;;;6.25;2.83;;;8.00;99.90;;;;;;5100237;28;20758;-68
2023/11/11 07:29:59;;;;;;;6.35;3.13;;;8.00;99.90;;;;;;5099814;28;20039;-67
2023/11/11 07:32:25;;;;;;;5.45;2.35;;;8.10;99.90;;;;;;5099898;28;20611;-67
2023/11/11 07:34:51;;;;;;;3.95;1.70;;;8.20;99.90;;;;;;5100839;28;20527;-67
2023/11/11 07:37:17;;;;;;;1.92;1.30;;;8.20;99.90;;;;;;5098682;28;20032;-67
2023/11/11 07:39:43;;;;;;;3.92;1.50;;;8.30;99.90;;;;;;5100773;28;20169;-67
2023/11/11 07:42:08;;;;;;;3.50;1.58;;;8.30;99.90;;;;;;5097659;28;20583;-67
2023/11/11 07:44:36;;;;;;;2.70;1.15;;;8.40;99.90;;;;;;5098699;28;20032;-67
2023/11/11 07:47:06;;;;;;;3.90;1.20;;;8.40;99.90;;;;;;5099574;28;20056;-67
2023/11/11 07:49:33;;;;;;;4.05;1.40;;;8.50;99.90;;;;;;5100411;28;20031;-66
2023/11/11 07:52:01;;;;;;;2.83;1.20;;;8.60;99.90;;;;;;5098200;28;20035;-67
2023/11/11 07:54:27;;;;;;;2.10;1.20;;;8.60;99.90;;;;;;5096968;28;20027;-69
2023/11/11 07:56:54;;;;;;;2.25;1.30;;;8.60;99.90;;;;;;5093131;28;20056;-68
2023/11/11 07:59:21;;;;;;;1.48;1.00;;;8.60;99.90;;;;;;5098032;28;20027;-70
2023/11/11 08:01:46;;;;;;;5.15;1.30;;;8.70;99.90;;;;;;5093264;28;20070;-67
2023/11/11 08:04:12;;;;;;;3.28;1.23;;;8.80;99.90;;;;;;5096029;28;20059;-67
2023/11/11 08:06:38;;;;;;;3.70;2.03;;;8.80;99.90;;;;;;5079132;28;20066;-67
2023/11/11 08:09:04;;;;;;;2.53;1.33;;;8.90;99.90;;;;;;5095326;28;20019;-66
2023/11/11 08:11:30;;;;;;;2.33;1.17;;;8.90;99.90;;;;;;5086899;28;20501;-68
2023/11/11 08:13:56;;;;;;;2.50;1.42;;;8.90;99.90;;;;;;5098411;28;20062;-68
2023/11/11 08:16:22;;;;;;;2.63;1.30;;;9.00;99.90;;;;;;5103834;28;20023;-68
2023/11/11 08:18:48;;;;;;;4.10;1.52;;;9.00;99.90;;;;;;5099409;28;20441;-69
2023/11/11 08:21:19;;;;;;;3.50;1.20;;;9.10;99.90;;;;;;5099219;28;20040;-69
2023/11/11 08:23:45;;;;;;;1.65;1.00;;;9.20;99.90;;;;;;5104555;28;20036;-68
2023/11/11 08:26:11;;;;;;;2.95;2.40;;;9.20;99.90;;;;;;5096598;28;20114;-68
2023/11/11 08:28:37;;;;;;;3.30;1.70;;;9.20;99.90;;;;;;5093175;28;20043;-68
2023/11/11 08:31:03;;;;;;;2.85;2.22;;;9.20;99.90;;;;;;5099206;28;20036;-68
2023/11/11 08:33:29;;;;;;;5.38;3.28;;;9.30;99.90;;;;;;5106527;27;20038;-68
2023/11/11 08:35:54;;;;;;;7.18;2.88;;;9.30;99.90;;;;;;5101129;28;20759;-69
2023/11/11 08:38:20;;;;;;;4.47;1.77;;;9.40;99.90;;;;;;5106316;28;20028;-68
2023/11/11 08:40:46;;;;;;;3.15;1.02;;;9.50;99.90;;;;;;5102192;28;20028;-68
2023/11/11 08:43:12;;;;;;;3.65;1.20;;;9.50;99.90;;;;;;5100762;28;20111;-69
2023/11/11 08:45:38;;;;;;;2.70;1.42;;;9.50;99.90;;;;;;5100034;27;20032;-69
2023/11/11 08:48:05;;;;;;;2.45;1.27;;;9.60;99.90;;;;;;5104488;28;20437;-69
2023/11/11 08:50:31;;;;;;;3.05;1.48;;;9.60;99.90;;;;;;5102929;28;20077;-69
2023/11/11 08:52:57;;;;;;;1.25;0.93;;;9.70;99.90;;;;;;5105575;28;20035;-69
2023/11/11 08:55:23;;;;;;;2.92;1.20;;;9.80;99.90;;;;;;5100166;28;20032;-68
2023/11/11 08:57:50;;;;;;;2.40;1.23;;;9.90;99.80;;;;;;5103830;28;20513;-68
2023/11/11 09:00:16;;;;;;;3.53;1.42;;;10.00;99.50;;;;;;5105771;28;20059;-68
2023/11/11 09:02:42;;;;;;;2.72;1.55;;;10.00;99.20;;;;;;5108685;28;20031;-68
2023/11/11 09:05:09;;;;;;;2.83;1.70;;;10.10;99.10;;;;;;5108741;28;20546;-69
2023/11/11 09:07:35;;;;;;;5.28;1.45;;;10.00;99.10;;;;;;5100989;28;20135;-68
2023/11/11 09:10:03;;;;;;;3.92;1.20;;;10.10;99.20;;;;;;5107348;27;20036;-68
2023/11/11 09:12:29;;;;;;;1.52;0.90;;;10.10;99.20;;;;;;5108670;28;20027;-69
2023/11/11 09:14:55;;;;;;;6.55;1.17;;;10.20;99.00;;;;;;5102966;28;20035;-69
2023/11/11 09:17:23;;;;;;;2.10;1.20;;;10.40;98.90;;;;;;5105054;28;20035;-69
2023/11/11 09:19:50;;;;;;;3.30;1.20;;;10.70;98.30;;;;;;5102589;28;20030;-69
2023/11/11 09:22:16;;;;;;;1.98;1.30;;;10.90;98.00;;;;;;5107836;28;20055;-69
2023/11/11 09:24:42;;;;;;;4.32;1.33;;;11.00;97.80;;;;;;5107758;28;20546;-68
2023/11/11 09:27:08;;;;;;;5.38;1.60;;;11.00;97.70;;;;;;5105064;28;20039;-69
2023/11/11 09:29:34;;;;;;;2.33;1.20;;;11.10;97.70;;;;;;5106847;28;20019;-69
2023/11/11 09:32:01;;;;;;;2.90;1.30;;;11.10;97.40;;;;;;5104927;28;20112;-69
2023/11/11 09:34:26;;;;;;;2.13;1.05;;;10.90;97.40;;;;;;5098014;28;20032;-68
2023/11/11 09:36:53;;;;;;;3.72;1.50;;;10.80;97.60;;;;;;5106275;28;20725;-68
2023/11/11 09:39:19;;;;;;;5.95;1.00;;;10.80;97.40;;;;;;5105662;28;20435;-68
2023/11/11 09:41:45;;;;;;;2.20;1.15;;;10.70;97.60;;;;;;5090925;28;20032;-68
2023/11/11 09:44:12;;;;;;;4.20;1.40;;;10.60;97.60;;;;;;5093833;28;20036;-68
2023/11/11 09:46:51;;;;;;;3.92;1.20;;;10.50;97.80;;;;;;5107215;28;20031;-68
2023/11/11 09:49:19;;;;;;;2.03;1.15;;;10.50;98.00;;;;;;5107570;28;20031;-68
2023/11/11 09:51:47;;;;;;;1.40;1.15;;;10.40;98.40;;;;;;5107653;28;20031;-68
2023/11/11 09:54:14;;;;;;;2.03;1.13;;;10.50;98.90;;;;;;5107494;28;20024;-68
2023/11/11 09:56:44;;;;;;;6.03;1.58;;;10.40;98.70;;;;;;5105659;28;20601;-67
2023/11/11 09:59:11;;;;;;;2.75;1.10;;;10.40;99.10;;;;;;5103844;28;20040;-68
2023/11/11 10:01:42;;;;;;;5.85;1.95;;;10.40;99.60;;;;;;5099126;28;20655;-68
2023/11/11 10:04:11;;;;;;;4.57;1.52;;;10.50;99.90;;;;;;5098916;28;20108;-68
2023/11/11 10:06:39;;;;;;;3.75;1.50;;;11.10;99.90;;;;;;5103614;28;20489;-68
2023/11/11 10:09:08;;;;;;;4.80;1.20;;;12.10;98.90;;;;;;5101083;28;20027;-67
2023/11/11 10:11:35;;;;;;;3.45;1.10;;;13.50;96.30;;;;;;5098860;28;20153;-68
2023/11/11 10:14:01;;;;;;;2.95;1.50;;;15.00;93.30;;;;;;5100744;28;20398;-68
2023/11/11 10:16:28;;;;;;;2.40;1.48;;;16.10;90.50;;;;;;5091615;28;20020;-68
2023/11/11 10:18:58;;;;;;;3.95;1.90;;;16.70;88.20;;;;;;5099497;28;20104;-68
2023/11/11 10:21:25;;;;;;;8.20;3.40;;;16.80;87.40;;;;;;5102778;28;20054;-69
2023/11/11 10:23:55;;;;;;;11.23;4.72;;;16.40;86.40;;;;;;5098224;28;20530;-68
2023/11/11 10:26:21;;;;;;;7.18;3.30;;;15.60;88.70;;;;;;5098805;28;20573;-68
2023/11/11 10:28:51;;;;;;;5.40;2.40;;;14.80;90.30;;;;;;5100264;28;20585;-69
2023/11/11 10:31:18;;;;;;;5.53;2.00;;;13.90;91.80;;;;;;5099104;27;20055;-68
2023/11/11 10:33:44;;;;;;;5.47;2.33;;;13.20;93.00;;;;;;5102518;28;20039;-69
2023/11/11 10:36:11;;;;;;;6.90;3.70;;;12.80;94.20;;;;;;5097799;28;20032;-68
2023/11/11 10:38:42;;;;;;;14.07;6.40;;;12.40;95.00;;;;;;5098770;28;20598;-66
2023/11/11 10:41:08;;;;;;;12.38;6.13;;;12.20;95.90;;;;;;5099343;28;20073;-69
2023/11/11 10:43:35;;;;;;;12.38;5.38;;;12.10;96.10;;;;;;5103512;28;20506;-69
2023/11/11 10:46:02;;;;;;;15.68;7.78;;;12.00;96.10;;;;;;5100048;28;20024;-69
2023/11/11 10:48:29;;;;;;;12.85;6.15;;;11.90;96.70;;;;;;5100131;28;20411;-69
2023/11/11 10:50:56;;;;;;;13.85;6.60;;;11.90;96.70;;;;;;5104993;28;20523;-69
2023/11/11 10:53:24;;;;;;;10.88;5.07;;;11.90;96.90;;;;;;5101358;28;20031;-68
2023/11/11 10:55:51;;;;;;;7.70;4.85;;;11.90;97.40;;;;;;5099984;28;20051;-69
2023/11/11 10:58:17;;;;;;;9.45;3.42;;;11.90;97.70;;;;;;5099537;28;20030;-69
2023/11/11 11:00:47;;;;;;;4.97;3.00;;;11.90;97.90;;;;;;5097032;28;20067;-69
2023/11/11 11:03:15;;;;;;;4.13;2.70;;;11.90;97.80;;;;;;5106002;28;20024;-69
2023/11/11 11:05:55;;;;;;;4.85;2.17;;;12.00;97.60;;;;;;5104911;28;20063;-69
2023/11/11 11:08:33;;;;;;;11.15;5.28;;;12.00;97.20;;;;;;5097679;28;20479;-69
2023/11/11 11:11:12;;;;;;;17.85;7.28;;;12.00;97.30;;;;;;5103254;28;20086;-69
2023/11/11 11:13:39;;;;;;;11.85;5.70;;;11.90;97.10;;;;;;5101640;28;20035;-69
2023/11/11 11:16:08;;;;;;;12.02;4.63;;;11.50;98.00;;;;;;5093474;28;20126;-70
2023/11/11 11:18:34;;;;;;;5.03;2.25;;;11.50;98.80;;;;;;5100503;28;20062;-69
2023/11/11 11:21:03;;;;;;;3.35;2.05;;;11.50;98.30;;;;;;5096131;28;20078;-69
2023/11/11 11:23:39;;;;;;;4.10;1.67;;;11.50;98.50;;;;;;5103010;27;20024;-69
2023/11/11 11:26:05;;;;;;;5.15;1.70;;;11.50;98.30;;;;;;5101044;28;20106;-69
2023/11/11 11:28:32;;;;;;;7.28;2.17;;;11.50;98.10;;;;;;5099274;27;20024;-67
2023/11/11 11:31:02;;;;;;;4.45;1.63;;;11.50;98.10;;;;;;5100962;28;20039;-68
2023/11/11 11:33:32;;;;;;;6.18;2.28;;;11.40;98.00;;;;;;5103163;28;20422;-69
2023/11/11 11:36:01;;;;;;;6.47;2.97;;;11.50;98.30;;;;;;5105119;28;20042;-68
2023/11/11 11:38:28;;;;;;;14.10;5.32;;;11.50;98.30;;;;;;5105367;28;20027;-68
2023/11/11 11:41:05;;;;;;;7.28;3.35;;;11.40;98.30;;;;;;5097009;28;20418;-68
2023/11/11 11:43:33;;;;;;;2.65;1.83;;;11.40;98.60;;;;;;5096864;28;20531;-69
2023/11/11 11:46:00;;;;;;;5.80;2.08;;;11.40;98.40;;;;;;5101217;28;20082;-69
2023/11/11 11:48:31;;;;;;;2.22;1.50;;;11.40;98.60;;;;;;5101467;28;20483;-69
2023/11/11 11:51:12;;;;;;;3.33;1.70;;;11.40;98.60;;;;;;5103290;28;20040;-69
2023/11/11 11:53:42;;;;;;;2.65;1.45;;;11.40;98.60;;;;;;5093420;28;20066;-69
2023/11/11 11:56:13;;;;;;;5.28;2.10;;;11.40;98.50;;;;;;5097498;28;20027;-69
2023/11/11 11:58:47;;;;;;;2.72;1.42;;;11.50;98.60;;;;;;5102175;28;20035;-67
2023/11/11 12:01:25;;;;;;;2.88;1.90;;;11.40;98.60;;;;;;5097147;28;20047;-67
2023/11/11 12:03:51;;;;;;;3.15;1.50;;;11.40;98.40;;;;;;5094472;28;20074;-67
2023/11/11 12:06:19;;;;;;;4.25;2.08;;;11.40;98.40;;;;;;5104479;28;20039;-67
2023/11/11 12:09:07;;;;;;;3.35;1.52;;;11.50;98.80;;;;;;5092236;28;20066;-67
2023/11/11 12:11:34;;;;;;;4.00;1.52;;;11.50;98.80;;;;;;5105129;28;20028;-67
2023/11/11 12:14:05;;;;;;;8.95;3.92;;;11.60;98.70;;;;;;5101920;28;20494;-67
2023/11/11 12:16:47;;;;;;;5.13;2.55;;;11.70;98.70;;;;;;5090165;28;20044;-67
2023/11/11 12:19:14;;;;;;;5.40;2.30;;;11.70;98.60;;;;;;5101073;28;20499;-66
2023/11/11 12:21:49;;;;;;;7.85;3.25;;;11.70;98.80;;;;;;5100734;28;20139;-67
2023/11/11 12:24:18;;;;;;;6.55;2.75;;;11.70;98.90;;;;;;5091266;28;20043;-67
2023/11/11 12:26:46;;;;;;;5.15;2.72;;;11.70;98.80;;;;;;5099170;28;20074;-68
2023/11/11 12:29:13;;;;;;;3.38;2.13;;;11.70;98.90;;;;;;5097507;28;20020;-67
2023/11/11 12:31:45;;;;;;;6.63;2.08;;;11.70;98.90;;;;;;5103827;28;20070;-68
2023/11/11 12:34:16;;;;;;;3.05;1.95;;;11.80;98.50;;;;;;5092601;28;20111;-68
2023/11/11 12:36:42;;;;;;;7.15;1.90;;;11.80;98.50;;;;;;5097487;28;20043;-69
2023/11/11 12:39:09;;;;;;;6.93;1.95;;;11.70;98.60;;;;;;5096441;28;20089;-66
2023/11/11 12:41:38;;;;;;;3.33;2.10;;;11.70;98.80;;;;;;5098485;28;20020;-68
2023/11/11 12:44:07;;;;;;;4.63;1.98;;;11.70;98.80;;;;;;5093214;28;20131;-66
2023/11/11 12:46:39;;;;;;;4.40;2.10;;;11.60;98.70;;;;;;5099603;28;20553;-68
2023/11/11 12:49:07;;;;;;;5.82;2.80;;;11.60;98.90;;;;;;5097064;28;20039;-68
2023/11/11 12:51:33;;;;;;;7.40;3.05;;;11.50;99.00;;;;;;5099093;28;20027;-68
2023/11/11 12:53:59;;;;;;;4.97;3.03;;;11.50;99.20;;;;;;5101493;28;20031;-68